CST,Max TemperatureF,Mean TemperatureF,Min TemperatureF,Max Dew PointF,MeanDew PointF,Min DewpointF,Max Humidity, Mean Humidity, Min Humidity, Max Sea Level PressureIn, Mean Sea Level PressureIn, Min Sea Level PressureIn, Max VisibilityMiles, Mean VisibilityMiles, Min VisibilityMiles, Max Wind SpeedMPH, Mean Wind SpeedMPH, Max Gust SpeedMPH,PrecipitationIn, CloudCover, Events, WindDirDegrees
2012-11-1,30,26,23,27,23,19,93,87,80,30.19,30.14,30.10,10,10,9,14,10,18,0.00,8,,49
2012-11-2,28,27,26,28,27,25,100,98,93,30.14,30.12,30.10,10,6,0,13,9,,0.00,7,Fog,107
2012-11-3,30,28,26,28,28,27,100,99,93,30.25,30.20,30.13,10,8,2,10,7,,0.00,8,,61
2012-11-4,32,30,28,32,29,27,100,96,86,30.23,30.18,30.14,10,9,2,9,3,,0.00,8,,133
2012-11-5,37,34,30,37,33,30,100,100,93,30.21,29.97,29.68,10,5,2,20,8,25,0.00,7,,197
2012-11-6,44,38,32,36,33,32,100,86,71,30.04,29.91,29.73,10,10,10,24,17,31,0.00,6,,301
2012-11-7,44,35,26,37,34,27,100,90,76,30.05,29.86,29.68,10,10,10,22,9,26,0.00,3,,165
2012-11-8,46,35,24,41,31,23,100,90,75,30.23,30.01,29.68,10,10,4,23,14,30,0.00,7,Rain,2
2012-11-9,26,24,21,25,19,9,100,84,58,30.24,30.13,29.99,10,9,2,23,16,32,0.00,7,Rain,57
2012-11-10,26,22,19,27,23,18,100,99,93,29.98,29.76,29.65,5,2,0,18,13,22,19.05,3,Rain-Snow,23
2012-11-11,19,17,15,18,15,12,100,92,86,29.81,29.71,29.64,8,4,1,23,17,28,4.67,8,Rain-Snow,295
2012-11-12,14,8,1,12,4,-2,93,83,72,30.08,30.00,29.82,10,7,2,23,16,26,0.03,3,Snow,269
2012-11-13,23,13,3,18,11,1,100,88,74,30.20,30.15,30.08,10,7,3,10,5,,0.00,5,,49
2012-11-14,28,16,5,27,21,1,100,98,85,30.17,30.04,29.95,10,4,0,17,7,,0.00,5,Fog-Rain,181
2012-11-15,26,16,5,25,15,3,100,92,85,30.40,30.30,30.02,10,10,5,16,10,,0.00,0,,246
2012-11-16,33,24,15,32,23,14,100,90,69,30.32,30.11,29.99,10,9,0,22,11,28,0.00,0,Fog,168
2012-11-17,32,24,15,32,22,14,100,99,93,30.07,30.03,29.99,8,2,0,8,3,,0.00,6,Fog,75
2012-11-18,32,24,15,32,24,16,100,100,93,30.00,29.91,29.84,5,2,0,12,3,,0.00,5,Fog-Rain,121
2012-11-19,35,22,10,32,24,10,100,98,87,30.13,30.02,29.85,10,5,0,16,6,,0.00,2,Fog,282
2012-11-20,39,27,15,34,29,14,100,96,75,30.10,29.91,29.83,10,8,0,15,8,,0.00,0,Fog,180
2012-11-21,35,32,28,36,33,28,100,99,87,29.85,29.72,29.56,10,8,0,16,7,22,0.00,3,Fog,73
2012-11-22,32,21,10,32,19,5,100,93,73,30.35,29.98,29.60,10,6,0,28,19,32,4.60,7,Fog-Rain-Snow,338
2012-11-23,8,3,-2,5,0,-6,92,83,72,30.50,30.42,30.27,10,10,10,24,14,28,0.00,4,,322
2012-11-24,28,14,0,27,17,-2,100,90,80,30.26,29.90,29.69,10,10,2,29,14,34,0.00,7,Rain,203
2012-11-25,26,12,-2,25,11,-6,100,85,72,30.29,30.04,29.85,10,9,1,29,15,34,0.17,5,Snow,320
2012-11-26,24,8,-7,23,6,-13,100,86,73,30.33,30.22,30.09,10,10,9,15,8,21,0.00,5,,248
2012-11-27,26,16,5,25,15,5,100,92,85,30.22,30.12,30.06,10,9,2,13,6,,0.04,7,Snow,334
2012-11-28,30,19,8,25,18,5,100,92,73,30.22,30.11,30.00,10,9,3,17,10,21,0.00,7,,277
2012-11-29,14,10,5,10,6,1,92,82,73,30.20,30.16,30.12,10,10,10,17,13,22,0.00,6,,75
2012-11-30,28,21,14,28,22,9,100,97,79,30.14,29.94,29.69,10,4,0,21,14,26,0.00,8,Fog,150